Time;durP1;ratioP1;P1;durP2;ratioP2;P2;SDS_P1;SDS_P2;PMS_P1;PMS_P2;Temp;Humidity;BMP_temperature;BMP_pressure;BME280_temperature;BME280_humidity;BME280_pressure;Samples;Min_cycle;Max_cycle;Signal;HPM_P1;HPM_P2
2023/09/15 00:01:05;;;;;;;0.40;0.27;;;;;;;21.83;75.55;95462.97;5071521;28;20440;-60
2023/09/15 00:03:33;;;;;;;0.50;0.40;;;;;;;21.90;74.85;95463.22;5071512;28;20971;-60
2023/09/15 00:06:02;;;;;;;0.40;0.30;;;;;;;21.92;74.83;95464.47;5070830;28;20451;-60
2023/09/15 00:08:31;;;;;;;0.40;0.20;;;;;;;21.92;74.44;95459.06;5071554;28;21066;-60
2023/09/15 00:11:02;;;;;;;0.50;0.30;;;;;;;21.94;75.03;95464.13;5070839;28;20522;-60
2023/09/15 00:13:31;;;;;;;0.77;0.33;;;;;;;22.05;73.68;95465.25;5071100;28;20445;-60
2023/09/15 00:16:00;;;;;;;0.40;0.30;;;;;;;22.06;74.50;95464.13;5071152;28;20438;-60
2023/09/15 00:18:28;;;;;;;0.40;0.30;;;;;;;22.06;74.38;95467.59;5070901;28;20448;-59
2023/09/15 00:20:57;;;;;;;0.40;0.30;;;;;;;22.03;75.78;95467.50;5071220;28;20437;-60
2023/09/15 00:23:25;;;;;;;0.93;0.40;;;;;;;22.03;75.29;95472.91;5070843;28;20511;-60
2023/09/15 00:25:55;;;;;;;0.40;0.30;;;;;;;21.87;77.70;95480.88;5074511;28;20433;-60
2023/09/15 00:28:23;;;;;;;0.50;0.40;;;;;;;21.76;78.73;95478.91;5074545;28;20477;-60
2023/09/15 00:30:52;;;;;;;0.50;0.40;;;;;;;21.28;80.33;95445.34;5074656;28;20490;-60
2023/09/15 00:33:20;;;;;;;0.53;0.53;;;;;;;21.40;82.80;95479.66;5074443;28;20445;-60
2023/09/15 00:35:48;;;;;;;0.60;0.60;;;;;;;21.43;83.58;95477.06;5074726;28;21091;-60
2023/09/15 00:38:17;;;;;;;0.40;0.30;;;;;;;21.64;81.61;95476.19;5074848;28;20450;-60
2023/09/15 00:40:45;;;;;;;0.80;0.50;;;;;;;21.41;84.30;95476.59;5074883;28;20445;-60
2023/09/15 00:43:15;;;;;;;0.50;0.33;;;;;;;21.22;86.85;95476.34;5074717;28;20441;-60
2023/09/15 00:45:44;;;;;;;0.60;0.30;;;;;;;21.24;87.62;95476.78;5074889;28;20454;-60
2023/09/15 00:48:14;;;;;;;0.40;0.27;;;;;;;21.23;88.26;95477.91;5073589;28;20480;-60
2023/09/15 00:50:43;;;;;;;0.80;0.40;;;;;;;20.99;90.69;95456.25;5074598;28;20437;-59
2023/09/15 00:53:14;;;;;;;0.50;0.43;;;;;;;20.78;89.55;95410.47;5073977;28;20467;-60
2023/09/15 00:55:44;;;;;;;0.40;0.30;;;;;;;21.50;86.18;95482.69;5075942;28;21002;-60
2023/09/15 00:58:16;;;;;;;0.50;0.30;;;;;;;21.48;86.00;95479.53;5074976;28;20791;-60
2023/09/15 01:00:45;;;;;;;0.63;0.40;;;;;;;21.33;86.35;95453.22;5071489;28;20450;-59
2023/09/15 01:03:18;;;;;;;0.83;0.40;;;;;;;21.56;86.13;95479.78;5074385;28;20441;-60
2023/09/15 01:05:47;;;;;;;2.00;0.53;;;;;;;21.17;85.11;95413.75;5073930;28;20541;-60
2023/09/15 01:08:16;;;;;;;0.67;0.50;;;;;;;21.39;87.89;95486.94;5073010;28;20513;-60
2023/09/15 01:10:44;;;;;;;1.50;1.50;;;;;;;21.52;87.42;95485.88;5073553;28;20478;-60
2023/09/15 01:13:14;;;;;;;2.40;0.80;;;;;;;21.59;86.70;95495.28;5074383;28;20464;-60
2023/09/15 01:15:52;;;;;;;0.60;0.50;;;;;;;21.61;87.01;95493.03;5074327;28;20438;-60
2023/09/15 01:18:25;;;;;;;0.50;0.30;;;;;;;21.63;84.89;95486.19;5073898;28;20669;-60
2023/09/15 01:21:24;;;;;;;0.73;0.73;;;;;;;21.62;85.76;95484.63;5073265;28;20499;-60
2023/09/15 01:24:13;;;;;;;0.60;0.60;;;;;;;21.67;84.11;95487.13;5073755;28;20441;-60
2023/09/15 01:27:08;;;;;;;1.00;0.67;;;;;;;21.65;84.38;95480.47;5073499;28;20453;-60
2023/09/15 01:29:46;;;;;;;0.47;0.30;;;;;;;21.62;84.63;95486.53;5073806;28;20494;-60
2023/09/15 01:32:18;;;;;;;0.40;0.30;;;;;;;21.62;83.83;95481.16;5047393;28;20872;-60
2023/09/15 01:34:49;;;;;;;0.50;0.30;;;;;;;21.53;84.62;95487.41;5072648;28;21051;-60
2023/09/15 01:37:17;;;;;;;0.50;0.33;;;;;;;21.13;85.26;95437.09;5073359;28;20442;-60
2023/09/15 01:39:46;;;;;;;0.40;0.30;;;;;;;21.42;85.43;95491.69;5073033;28;20527;-60
2023/09/15 01:42:14;;;;;;;0.50;0.40;;;;;;;20.77;86.07;95408.88;5073318;28;20445;-60
2023/09/15 01:44:44;;;;;;;0.50;0.40;;;;;;;20.85;89.32;95498.81;5073515;28;20440;-60
2023/09/15 01:47:18;;;;;;;0.50;0.30;;;;;;;20.36;93.09;95483.50;5073575;28;20452;-60
2023/09/15 01:49:48;;;;;;;0.57;0.47;;;;;;;20.56;92.95;95497.00;5069019;28;20444;-60
2023/09/15 01:52:17;;;;;;;1.57;0.40;;;;;;;20.90;88.66;95490.53;5065333;28;20510;-60
2023/09/15 01:54:47;;;;;;;0.50;0.30;;;;;;;21.08;87.06;95491.22;5072749;28;20439;-61
2023/09/15 01:57:16;;;;;;;0.50;0.37;;;;;;;20.77;90.21;95494.31;5073555;28;20433;-60
2023/09/15 01:59:45;;;;;;;0.50;0.40;;;;;;;20.58;91.66;95496.66;5072865;28;20868;-59
2023/09/15 02:02:14;;;;;;;0.50;0.40;;;;;;;20.77;90.56;95499.69;5073255;28;20441;-59
2023/09/15 02:04:42;;;;;;;0.77;0.40;;;;;;;20.91;89.33;95486.75;5073089;28;20445;-60
2023/09/15 02:07:11;;;;;;;0.40;0.30;;;;;;;20.98;88.94;95488.88;5072980;28;20476;-60
2023/09/15 02:09:39;;;;;;;0.50;0.40;;;;;;;20.92;87.85;95491.78;5073303;28;20964;-60
2023/09/15 02:12:08;;;;;;;0.60;0.50;;;;;;;20.51;89.89;95453.31;5072567;28;20496;-59
2023/09/15 02:14:36;;;;;;;0.50;0.30;;;;;;;20.86;89.09;95503.91;5073257;28;20484;-59
2023/09/15 02:17:06;;;;;;;1.00;0.90;;;;;;;20.83;88.40;95499.16;5071866;28;20455;-59
2023/09/15 02:19:35;;;;;;;0.40;0.30;;;;;;;20.79;88.67;95492.06;5071617;28;20491;-59
2023/09/15 02:22:03;;;;;;;0.50;0.40;;;;;;;20.78;88.72;95493.19;5068799;28;20445;-59
2023/09/15 02:24:31;;;;;;;0.50;0.30;;;;;;;20.63;90.65;95493.78;5063321;28;20460;-59
2023/09/15 02:27:00;;;;;;;0.60;0.40;;;;;;;20.72;90.06;95495.28;5072396;28;20439;-59
2023/09/15 02:29:29;;;;;;;0.60;0.53;;;;;;;20.25;92.73;95477.72;5072500;28;20537;-59
2023/09/15 02:31:57;;;;;;;0.53;0.40;;;;;;;20.53;91.25;95494.94;5072049;28;20469;-59
2023/09/15 02:34:27;;;;;;;0.50;0.30;;;;;;;20.57;90.42;95489.69;5072103;28;20497;-59
2023/09/15 02:36:55;;;;;;;0.50;0.30;;;;;;;20.58;90.27;95497.44;5071946;28;20461;-60
2023/09/15 02:39:24;;;;;;;0.60;0.50;;;;;;;20.35;92.15;95490.00;5072021;28;21006;-59
2023/09/15 02:41:52;;;;;;;0.40;0.30;;;;;;;20.30;93.55;95501.75;5071928;28;20487;-58
2023/09/15 02:44:20;;;;;;;0.50;0.30;;;;;;;20.38;91.14;95489.34;5072259;28;20525;-59
2023/09/15 02:46:48;;;;;;;0.40;0.30;;;;;;;20.54;90.08;95507.28;5071347;28;20437;-59
2023/09/15 02:49:17;;;;;;;0.40;0.30;;;;;;;20.53;90.04;95499.53;5072108;28;20516;-59
2023/09/15 02:51:47;;;;;;;0.70;0.40;;;;;;;20.57;89.18;95508.53;5072092;28;20437;-60
2023/09/15 02:54:15;;;;;;;1.37;0.50;;;;;;;20.48;89.16;95503.22;5071705;28;20521;-59
2023/09/15 02:56:43;;;;;;;0.80;0.50;;;;;;;20.36;89.55;95513.91;5071595;28;20438;-59
2023/09/15 02:59:12;;;;;;;0.50;0.40;;;;;;;20.32;90.47;95512.19;5071807;28;20797;-59
2023/09/15 03:01:40;;;;;;;0.40;0.40;;;;;;;20.33;90.82;95509.19;5072278;28;20433;-59
2023/09/15 03:04:08;;;;;;;0.50;0.50;;;;;;;20.41;89.98;95511.03;5071486;28;20516;-59
2023/09/15 03:06:37;;;;;;;0.53;0.40;;;;;;;20.33;89.84;95513.78;5072505;28;20502;-59
2023/09/15 03:09:07;;;;;;;0.93;0.70;;;;;;;20.35;89.79;95511.53;5071371;28;20480;-58
2023/09/15 03:11:35;;;;;;;0.47;0.30;;;;;;;20.36;89.87;95510.44;5071907;28;20519;-59
2023/09/15 03:14:04;;;;;;;0.60;0.40;;;;;;;20.27;89.85;95516.66;5071419;28;20517;-59
2023/09/15 03:16:32;;;;;;;3.80;0.63;;;;;;;20.17;90.35;95511.59;5071802;28;20465;-59
2023/09/15 03:19:01;;;;;;;0.90;0.90;;;;;;;20.21;90.26;95517.91;5071012;28;20433;-59
2023/09/15 03:21:30;;;;;;;0.40;0.20;;;;;;;20.28;90.56;95517.44;5071739;28;20502;-59
2023/09/15 03:23:58;;;;;;;0.70;0.67;;;;;;;20.30;89.67;95520.59;5071528;28;20514;-59
2023/09/15 03:26:28;;;;;;;0.50;0.30;;;;;;;20.23;89.32;95523.00;5071366;28;20510;-59
2023/09/15 03:28:57;;;;;;;0.60;0.40;;;;;;;20.00;90.47;95500.13;5071467;28;20560;-59
2023/09/15 03:31:26;;;;;;;0.60;0.50;;;;;;;19.54;90.91;95445.28;5071636;28;20448;-59
2023/09/15 03:33:54;;;;;;;0.60;0.60;;;;;;;20.09;90.85;95533.97;5070956;28;20503;-59
2023/09/15 03:36:25;;;;;;;0.50;0.30;;;;;;;19.99;91.39;95539.69;5071518;28;20969;-58
2023/09/15 03:38:54;;;;;;;0.60;0.50;;;;;;;19.97;91.93;95539.25;5071428;28;20445;-59
2023/09/15 03:41:24;;;;;;;0.60;0.40;;;;;;;19.83;90.81;95505.59;5071272;28;20790;-59
2023/09/15 03:43:53;;;;;;;0.70;0.70;;;;;;;19.99;92.08;95537.00;5071100;28;20433;-59
2023/09/15 03:46:22;;;;;;;0.40;0.30;;;;;;;20.04;90.67;95539.53;5071423;28;20536;-59
2023/09/15 03:48:50;;;;;;;0.70;0.70;;;;;;;19.93;93.26;95543.69;5071088;28;20831;-59
2023/09/15 03:51:19;;;;;;;0.60;0.40;;;;;;;19.82;94.15;95541.66;5070565;28;20516;-58
2023/09/15 03:53:47;;;;;;;0.43;0.30;;;;;;;19.92;92.57;95547.50;5071254;28;20448;-58
2023/09/15 03:56:16;;;;;;;0.60;0.53;;;;;;;19.90;92.39;95548.94;5071102;28;20437;-59
2023/09/15 03:58:45;;;;;;;0.57;0.43;;;;;;;19.93;92.22;95549.09;5070922;28;20453;-59
2023/09/15 04:01:19;;;;;;;0.83;0.43;;;;;;;19.99;91.21;95553.16;5074240;28;20532;-59
2023/09/15 04:03:48;;;;;;;0.60;0.40;;;;;;;19.93;90.83;95545.59;5074894;28;20472;-58
2023/09/15 04:06:17;;;;;;;0.50;0.40;;;;;;;19.81;92.00;95540.88;5075209;28;20969;-59
2023/09/15 04:08:46;;;;;;;0.50;0.43;;;;;;;19.67;91.72;95524.16;5073912;28;20508;-61
2023/09/15 04:11:15;;;;;;;0.53;0.37;;;;;;;19.40;95.12;95538.78;5074893;28;20945;-60
2023/09/15 04:13:43;;;;;;;0.50;0.40;;;;;;;19.44;97.14;95566.59;5074587;28;20445;-58
2023/09/15 04:16:12;;;;;;;0.60;0.57;;;;;;;19.71;95.38;95568.13;5075316;28;20793;-59
2023/09/15 04:18:41;;;;;;;0.60;0.50;;;;;;;19.46;95.37;95528.63;5074539;28;20437;-59
2023/09/15 04:21:10;;;;;;;0.40;0.30;;;;;;;19.85;94.21;95579.50;5074746;28;20444;-59
2023/09/15 04:23:38;;;;;;;1.90;0.83;;;;;;;19.91;93.00;95580.88;5074780;28;20437;-59
2023/09/15 04:26:06;;;;;;;0.60;0.50;;;;;;;20.02;91.47;95584.00;5074916;28;20439;-58
2023/09/15 04:28:35;;;;;;;0.50;0.40;;;;;;;20.11;90.59;95582.84;5074941;28;20502;-58
2023/09/15 04:31:03;;;;;;;0.83;0.50;;;;;;;19.76;97.65;95592.16;5074383;28;20479;-58
2023/09/15 04:33:32;;;;;;;0.60;0.40;;;;;;;19.47;100.00;95592.06;5074532;28;20468;-58
2023/09/15 04:36:03;;;;;;;0.50;0.30;;;;;;;19.42;100.00;95595.72;5073982;28;21101;-58
2023/09/15 04:38:32;;;;;;;0.60;0.40;;;;;;;19.37;100.00;95585.13;5074210;28;20918;-57
2023/09/15 04:41:00;;;;;;;1.37;0.40;;;;;;;19.30;100.00;95598.19;5074253;28;20440;-59
2023/09/15 04:43:30;;;;;;;0.73;0.70;;;;;;;18.92;100.00;95583.81;5074746;28;20433;-59
2023/09/15 04:45:58;;;;;;;0.50;0.50;;;;;;;18.91;100.00;95593.78;5075008;28;20768;-58
2023/09/15 04:48:27;;;;;;;0.63;0.63;;;;;;;18.86;100.00;95590.44;5074668;28;20987;-59
2023/09/15 04:50:55;;;;;;;0.50;0.47;;;;;;;19.02;100.00;95583.50;5074533;28;20476;-59
2023/09/15 04:53:25;;;;;;;0.60;0.50;;;;;;;19.13;100.00;95562.47;5074469;28;20880;-58
2023/09/15 04:55:53;;;;;;;0.40;0.37;;;;;;;19.38;100.00;95592.06;5073988;28;20451;-58
2023/09/15 04:58:22;;;;;;;0.50;0.37;;;;;;;19.65;100.00;95585.53;5073990;28;20444;-59
2023/09/15 05:00:50;;;;;;;0.50;0.33;;;;;;;19.98;100.00;95601.91;5074229;28;20488;-58
2023/09/15 05:03:18;;;;;;;0.60;0.50;;;;;;;19.88;100.00;95599.56;5074834;28;20441;-59
2023/09/15 05:05:50;;;;;;;0.50;0.40;;;;;;;19.79;100.00;95582.66;5073892;28;20949;-58
2023/09/15 05:08:19;;;;;;;0.50;0.40;;;;;;;19.83;100.00;95597.06;5074170;28;20477;-60
2023/09/15 05:10:49;;;;;;;0.40;0.30;;;;;;;19.73;100.00;95595.50;5073447;28;20473;-60
2023/09/15 05:13:18;;;;;;;0.50;0.40;;;;;;;19.68;100.00;95554.53;5074060;28;20444;-60
2023/09/15 05:15:46;;;;;;;0.50;0.33;;;;;;;20.03;100.00;95596.38;5075613;28;20438;-60
2023/09/15 05:18:15;;;;;;;0.50;0.50;;;;;;;20.17;100.00;95591.56;5074979;28;20518;-60
2023/09/15 05:20:43;;;;;;;2.03;0.40;;;;;;;20.06;100.00;95596.50;5073923;28;20470;-60
2023/09/15 05:23:11;;;;;;;0.50;0.30;;;;;;;20.40;100.00;95590.22;5074247;28;20438;-59
2023/09/15 05:25:40;;;;;;;0.50;0.50;;;;;;;20.72;99.25;95604.97;5073394;28;20794;-59
2023/09/15 05:28:09;;;;;;;0.50;0.30;;;;;;;20.65;100.00;95594.69;5073511;28;20437;-59
2023/09/15 05:30:38;;;;;;;1.83;0.40;;;;;;;20.64;100.00;95601.19;5073479;28;20469;-58
2023/09/15 05:33:08;;;;;;;0.60;0.30;;;;;;;20.63;98.77;95583.44;5073411;28;20437;-57
2023/09/15 05:35:37;;;;;;;0.50;0.40;;;;;;;20.73;100.00;95606.50;5073626;28;20479;-59
2023/09/15 05:38:06;;;;;;;0.50;0.40;;;;;;;20.72;100.00;95607.66;5072888;28;20452;-58
2023/09/15 05:40:36;;;;;;;1.17;0.40;;;;;;;20.64;100.00;95603.09;5073348;28;20445;-58
2023/09/15 05:43:04;;;;;;;0.50;0.40;;;;;;;20.83;100.00;95598.84;5059640;28;20441;-58
2023/09/15 05:45:34;;;;;;;1.13;0.80;;;;;;;20.95;99.36;95600.81;5073678;28;20450;-58
2023/09/15 05:48:02;;;;;;;0.63;0.40;;;;;;;21.45;95.91;95606.97;5073034;28;20484;-56
2023/09/15 05:50:31;;;;;;;0.60;0.43;;;;;;;22.17;89.55;95594.03;5072442;28;20474;-58
2023/09/15 05:52:59;;;;;;;0.40;0.30;;;;;;;22.59;85.11;95604.31;5073159;28;20515;-60
2023/09/15 05:55:27;;;;;;;1.63;0.60;;;;;;;22.85;82.71;95600.47;5073481;28;20442;-61
2023/09/15 05:57:56;;;;;;;0.50;0.40;;;;;;;22.99;82.08;95598.22;5072670;28;20441;-59
2023/09/15 06:00:25;;;;;;;0.50;0.40;;;;;;;23.30;78.94;95598.41;5073177;28;20503;-59
2023/09/15 06:02:54;;;;;;;0.50;0.30;;;;;;;23.47;77.70;95595.44;5073250;28;20494;-58
2023/09/15 06:05:25;;;;;;;0.50;0.40;;;;;;;23.58;76.88;95595.72;5073100;28;20498;-57
2023/09/15 06:07:53;;;;;;;0.93;0.93;;;;;;;23.89;75.51;95593.06;5072344;28;20513;-57
2023/09/15 06:10:22;;;;;;;0.63;0.63;;;;;;;24.23;74.50;95591.66;5072763;28;20473;-58
2023/09/15 06:12:51;;;;;;;0.93;0.80;;;;;;;24.40;72.73;95588.59;5072569;28;20433;-58
2023/09/15 06:15:21;;;;;;;0.87;0.30;;;;;;;24.56;73.22;95592.91;5072493;28;20437;-58
2023/09/15 06:17:50;;;;;;;0.50;0.50;;;;;;;25.03;70.28;95592.84;5072799;28;20443;-60
2023/09/15 06:20:20;;;;;;;0.50;0.30;;;;;;;25.31;68.85;95591.88;5072084;28;20930;-59
2023/09/15 06:22:48;;;;;;;1.07;1.00;;;;;;;25.21;66.55;95596.72;5072234;28;20445;-60
2023/09/15 06:25:17;;;;;;;0.77;0.63;;;;;;;24.67;67.53;95597.78;5072266;28;20449;-60
2023/09/15 06:27:45;;;;;;;0.80;0.80;;;;;;;24.42;68.80;95592.53;5071863;28;20487;-60
2023/09/15 06:30:14;;;;;;;0.90;0.70;;;;;;;23.73;69.50;95502.97;5071967;28;20469;-60
2023/09/15 06:32:42;;;;;;;0.80;0.60;;;;;;;24.76;67.82;95601.09;5063096;28;20434;-60
2023/09/15 06:35:13;;;;;;;0.60;0.60;;;;;;;25.21;67.87;95580.44;5069202;28;20468;-60
2023/09/15 06:37:42;;;;;;;1.17;1.07;;;;;;;24.93;66.79;95585.25;5072245;28;20861;-58
2023/09/15 06:40:12;;;;;;;4.90;0.90;;;;;;;25.46;65.40;95591.84;5072343;28;20535;-59
2023/09/15 06:42:40;;;;;;;0.80;0.60;;;;;;;25.92;63.51;95600.09;5060507;28;20452;-58
2023/09/15 06:45:10;;;;;;;1.00;0.97;;;;;;;26.08;63.05;95585.28;5070850;28;20433;-56
2023/09/15 06:47:39;;;;;;;0.77;0.60;;;;;;;26.17;61.19;95576.91;5059798;28;20511;-57
2023/09/15 06:50:11;;;;;;;0.93;0.93;;;;;;;26.18;60.27;95573.84;5071423;28;20469;-57
2023/09/15 06:52:39;;;;;;;1.73;1.63;;;;;;;25.85;61.26;95587.16;5070833;28;20465;-56
2023/09/15 06:55:09;;;;;;;0.60;0.50;;;;;;;26.37;59.56;95573.75;5071560;28;20441;-58
2023/09/15 06:57:37;;;;;;;1.77;0.97;;;;;;;27.17;58.72;95572.66;5071830;28;20429;-57
2023/09/15 07:00:10;;;;;;;13.57;0.70;;;;;;;27.60;56.48;95577.50;5072190;28;20437;-56
2023/09/15 07:02:38;;;;;;;0.90;0.70;;;;;;;27.39;55.95;95576.47;5071902;28;21045;-56
2023/09/15 07:05:07;;;;;;;1.87;0.60;;;;;;;27.37;56.12;95579.53;5071797;28;20472;-57
2023/09/15 07:07:36;;;;;;;0.60;0.60;;;;;;;27.74;55.38;95571.44;5071659;28;20434;-57
2023/09/15 07:10:05;;;;;;;0.77;0.43;;;;;;;27.66;55.12;95494.31;5071682;28;20437;-56
2023/09/15 07:12:35;;;;;;;1.00;1.00;;;;;;;28.30;53.03;95571.25;5071442;28;20429;-56
2023/09/15 07:15:05;;;;;;;1.10;1.00;;;;;;;28.17;52.81;95567.22;5072238;28;20437;-56
2023/09/15 07:17:34;;;;;;;1.10;0.80;;;;;;;28.34;52.88;95569.31;5072180;28;20460;-55
2023/09/15 07:20:02;;;;;;;0.67;0.67;;;;;;;28.57;51.92;95567.19;5071721;28;20445;-55
2023/09/15 07:22:30;;;;;;;0.53;0.50;;;;;;;29.06;50.82;95568.72;5071209;28;20499;-56
2023/09/15 07:24:59;;;;;;;0.60;0.57;;;;;;;28.77;50.85;95574.00;5058815;28;20440;-55
2023/09/15 07:27:27;;;;;;;1.70;0.70;;;;;;;29.04;50.61;95538.31;5045648;28;20444;-54
2023/09/15 07:29:57;;;;;;;0.70;0.70;;;;;;;29.23;48.76;95570.78;5071258;28;20440;-56
2023/09/15 07:32:25;;;;;;;0.63;0.63;;;;;;;29.19;48.73;95564.50;5071385;28;20476;-55
2023/09/15 07:34:53;;;;;;;0.70;0.50;;;;;;;30.05;48.60;95568.00;5071212;28;20481;-56
2023/09/15 07:37:22;;;;;;;1.73;0.90;;;;;;;29.94;47.28;95564.47;5071133;28;20447;-54
2023/09/15 07:39:50;;;;;;;0.60;0.60;;;;;;;30.04;46.82;95565.66;5071368;28;20565;-53
2023/09/15 07:42:20;;;;;;;0.87;0.87;;;;;;;30.31;47.68;95561.38;5071540;28;20491;-53
2023/09/15 07:44:48;;;;;;;5.53;0.70;;;;;;;30.09;47.61;95557.84;5071475;28;20448;-54
2023/09/15 07:47:19;;;;;;;0.50;0.50;;;;;;;30.63;46.53;95547.75;5071915;28;20479;-53
2023/09/15 07:49:48;;;;;;;0.87;0.50;;;;;;;31.18;46.42;95557.06;5071426;28;20520;-54
2023/09/15 07:52:16;;;;;;;1.03;0.80;;;;;;;30.66;45.77;95553.22;5071451;28;20473;-54
2023/09/15 07:54:45;;;;;;;0.90;0.90;;;;;;;31.27;45.55;95560.16;5070586;28;20437;-52
2023/09/15 07:57:14;;;;;;;1.57;1.00;;;;;;;31.69;44.89;95553.00;5070973;28;20490;-53
2023/09/15 07:59:42;;;;;;;0.73;0.70;;;;;;;30.88;44.23;95556.72;5070707;28;20444;-54
2023/09/15 08:02:10;;;;;;;6.10;0.67;;;;;;;31.78;43.55;95554.13;5070923;28;20468;-52
2023/09/15 08:04:41;;;;;;;0.67;0.67;;;;;;;32.37;43.18;95557.69;5070984;28;20437;-53
2023/09/15 08:07:10;;;;;;;0.57;0.50;;;;;;;33.25;42.27;95545.94;5071035;28;20436;-53
2023/09/15 08:09:38;;;;;;;1.03;1.03;;;;;;;33.23;41.42;95547.56;5071079;28;20447;-52
2023/09/15 08:12:07;;;;;;;8.23;0.77;;;;;;;33.42;40.01;95549.69;5070188;28;20551;-53
2023/09/15 08:14:36;;;;;;;2.40;0.77;;;;;;;33.54;40.86;95540.91;5071506;28;20502;-54
2023/09/15 08:17:04;;;;;;;0.63;0.63;;;;;;;33.72;40.34;95541.50;5070830;28;20926;-51
2023/09/15 08:19:40;;;;;;;6.57;0.50;;;;;;;32.98;39.79;95542.28;5071050;28;20786;-52
2023/09/15 08:22:08;;;;;;;0.83;0.83;;;;;;;32.42;41.68;95542.75;5070632;28;20498;-51
2023/09/15 08:24:37;;;;;;;0.97;0.77;;;;;;;32.06;41.12;95542.25;5070463;28;20447;-51
2023/09/15 08:27:05;;;;;;;0.80;0.70;;;;;;;32.54;39.56;95529.38;5070710;28;20738;-53
2023/09/15 08:29:37;;;;;;;0.70;0.70;;;;;;;32.30;40.64;95532.28;5071270;28;20833;-53
2023/09/15 08:32:14;;;;;;;0.57;0.53;;;;;;;32.49;40.92;95543.50;5056751;28;20559;-51
2023/09/15 08:34:45;;;;;;;4.33;0.50;;;;;;;32.11;41.79;95528.09;5070336;28;20498;-52
2023/09/15 08:37:14;;;;;;;2.70;0.50;;;;;;;31.75;40.60;95532.97;5057920;28;20475;-52
2023/09/15 08:39:42;;;;;;;0.40;0.37;;;;;;;32.28;41.18;95527.22;5070202;28;20475;-52
2023/09/15 08:42:17;;;;;;;0.60;0.60;;;;;;;31.84;41.76;95524.34;5070179;28;20445;-52
2023/09/15 08:44:46;;;;;;;1.53;0.47;;;;;;;31.48;42.42;95528.41;5070590;28;20473;-52
2023/09/15 08:47:14;;;;;;;1.13;1.00;;;;;;;31.11;43.03;95477.69;5074313;28;20445;-52
2023/09/15 08:49:45;;;;;;;0.90;0.80;;;;;;;31.16;42.82;95457.31;5074519;28;20448;-52
2023/09/15 08:52:17;;;;;;;0.50;0.30;;;;;;;31.56;42.90;95514.31;5074341;28;20541;-52
2023/09/15 08:54:47;;;;;;;0.80;0.37;;;;;;;32.05;41.93;95520.72;5073458;28;21019;-52
2023/09/15 08:57:17;;;;;;;0.80;0.60;;;;;;;32.05;42.29;95516.00;5074458;28;20440;-52
2023/09/15 08:59:46;;;;;;;1.00;0.67;;;;;;;31.34;41.56;95519.06;5073813;28;20432;-52
2023/09/15 09:02:15;;;;;;;0.50;0.47;;;;;;;31.60;41.03;95515.06;5074325;28;20452;-53
2023/09/15 09:04:45;;;;;;;0.83;0.70;;;;;;;31.52;40.68;95505.34;5074176;28;20890;-53
2023/09/15 09:07:15;;;;;;;0.50;0.50;;;;;;;31.49;39.99;95516.28;5073360;28;20445;-53
2023/09/15 09:09:45;;;;;;;2.93;0.60;;;;;;;30.95;40.07;95512.94;5073908;28;20539;-53
2023/09/15 09:12:14;;;;;;;0.40;0.40;;;;;;;30.66;41.01;95517.63;5073051;28;20472;-53
2023/09/15 09:14:42;;;;;;;1.20;0.40;;;;;;;30.86;40.68;95509.00;5074037;28;20437;-54
2023/09/15 09:17:14;;;;;;;0.60;0.53;;;;;;;30.79;41.57;95512.53;5073802;28;20533;-54
2023/09/15 09:19:49;;;;;;;1.27;1.17;;;;;;;31.16;40.41;95512.88;5073719;28;20444;-54
2023/09/15 09:22:17;;;;;;;0.60;0.60;;;;;;;31.20;41.25;95512.84;5073414;28;20434;-54
2023/09/15 09:24:53;;;;;;;0.30;0.30;;;;;;;31.26;41.71;95503.84;5073588;28;20451;-54
2023/09/15 09:27:22;;;;;;;4.50;0.43;;;;;;;31.21;42.04;95509.72;5073140;28;20444;-49
2023/09/15 09:29:50;;;;;;;1.10;0.70;;;;;;;31.24;42.99;95508.94;5073585;28;20450;-50
2023/09/15 09:32:18;;;;;;;0.60;0.60;;;;;;;31.20;40.67;95505.41;5073706;28;20826;-59
2023/09/15 09:34:51;;;;;;;8.00;0.80;;;;;;;31.38;40.65;95497.13;5073500;28;20506;-59
2023/09/15 09:37:26;;;;;;;0.50;0.40;;;;;;;31.56;40.04;95505.28;5073959;28;20524;-59
2023/09/15 09:39:55;;;;;;;1.00;1.00;;;;;;;32.10;40.70;95496.38;5072765;28;20956;-58
2023/09/15 09:42:24;;;;;;;1.70;1.70;;;;;;;32.22;39.35;95490.41;5073489;28;20541;-57
2023/09/15 09:44:53;;;;;;;0.70;0.50;;;;;;;32.19;41.78;95485.72;5072841;28;20443;-58
2023/09/15 09:47:22;;;;;;;1.43;0.70;;;;;;;32.14;41.25;95466.19;5073736;28;20856;-57
2023/09/15 09:49:53;;;;;;;9.20;0.60;;;;;;;32.75;40.34;95476.25;5073363;28;20515;-57
2023/09/15 09:52:22;;;;;;;1.47;0.70;;;;;;;32.50;40.60;95478.41;5073643;28;20464;-57
2023/09/15 09:54:53;;;;;;;0.73;0.73;;;;;;;33.38;40.49;95469.25;5073489;28;20429;-57
2023/09/15 09:57:22;;;;;;;0.60;0.60;;;;;;;33.90;38.50;95472.50;5071524;28;20940;-56
2023/09/15 09:59:50;;;;;;;1.03;1.00;;;;;;;34.21;40.06;95464.97;5059164;28;20445;-57
2023/09/15 10:02:18;;;;;;;0.70;0.70;;;;;;;34.47;37.94;95459.41;5072010;28;20506;-56
2023/09/15 10:04:47;;;;;;;0.70;0.70;;;;;;;34.23;37.85;95443.34;5072217;28;20436;-56
2023/09/15 10:07:17;;;;;;;0.67;0.67;;;;;;;33.85;38.55;95451.72;5072106;28;20449;-56
2023/09/15 10:09:46;;;;;;;0.70;0.60;;;;;;;33.77;37.82;95455.03;5073013;28;20432;-57
2023/09/15 10:12:15;;;;;;;0.60;0.60;;;;;;;34.14;37.80;95456.81;5072104;28;20560;-57
2023/09/15 10:14:44;;;;;;;0.60;0.57;;;;;;;35.03;37.93;95452.13;5072865;28;20795;-52
2023/09/15 10:17:12;;;;;;;0.60;0.60;;;;;;;35.47;35.67;95445.31;5072479;28;20954;-53
2023/09/15 10:19:42;;;;;;;1.50;0.57;;;;;;;35.47;35.85;95442.56;5072844;28;20437;-52
2023/09/15 10:22:11;;;;;;;2.10;0.80;;;;;;;35.02;38.43;95439.53;5071921;28;20468;-52
2023/09/15 10:24:47;;;;;;;1.03;1.03;;;;;;;36.40;35.43;95432.97;5072762;28;20447;-51
2023/09/15 10:27:15;;;;;;;0.80;0.73;;;;;;;36.83;33.81;95420.38;5072378;28;20447;-51
2023/09/15 10:29:45;;;;;;;0.70;0.63;;;;;;;37.18;34.54;95428.91;5072331;28;20437;-52
2023/09/15 10:32:17;;;;;;;0.43;0.43;;;;;;;37.69;34.79;95419.50;5067394;28;20251;-53
2023/09/15 10:34:46;;;;;;;0.80;0.63;;;;;;;37.07;33.33;95407.09;5066740;28;20256;-52
2023/09/15 10:37:14;;;;;;;0.60;0.50;;;;;;;38.06;33.35;95417.97;5072592;28;20256;-53
2023/09/15 10:39:44;;;;;;;0.50;0.40;;;;;;;37.57;34.26;95406.47;5072287;28;20198;-53
2023/09/15 10:42:14;;;;;;;1.42;0.60;;;;;;;37.85;33.60;95413.13;5072057;28;20252;-52
2023/09/15 10:44:44;;;;;;;0.40;0.38;;;;;;;38.17;35.01;95409.31;5072255;28;20202;-53
2023/09/15 10:47:16;;;;;;;0.63;0.50;;;;;;;37.95;34.16;95414.78;5072625;28;20202;-53
2023/09/15 10:49:52;;;;;;;0.30;0.30;;;;;;;37.68;33.95;95397.81;5071763;28;20649;-53
2023/09/15 10:52:33;;;;;;;0.40;0.40;;;;;;;37.94;33.15;95402.94;5072367;28;20213;-53
2023/09/15 10:55:04;;;;;;;0.80;0.57;;;;;;;37.88;32.90;95393.63;5047503;28;20202;-53
2023/09/15 10:57:36;;;;;;;0.40;0.40;;;;;;;36.72;34.25;95394.25;5070816;28;20248;-53
2023/09/15 11:00:07;;;;;;;2.58;0.50;;;;;;;36.71;35.67;95387.19;5071922;28;20633;-52
2023/09/15 11:02:36;;;;;;;2.10;0.70;;;;;;;35.90;34.73;95387.22;5058454;28;20197;-52
2023/09/15 11:05:06;;;;;;;0.40;0.38;;;;;;;36.13;35.29;95384.31;5071540;28;20580;-53
2023/09/15 11:07:35;;;;;;;0.40;0.30;;;;;;;36.61;35.75;95371.69;5070718;28;20191;-52
2023/09/15 11:10:08;;;;;;;0.60;0.60;;;;;;;37.47;33.26;95374.38;5071273;28;20202;-54
2023/09/15 11:12:36;;;;;;;0.40;0.30;;;;;;;38.56;32.54;95368.00;5071171;28;20299;-54
2023/09/15 11:15:06;;;;;;;0.70;0.70;;;;;;;38.46;32.15;95366.38;5071806;28;20233;-54
2023/09/15 11:17:35;;;;;;;0.32;0.32;;;;;;;39.20;33.12;95360.19;5071660;28;20195;-53
2023/09/15 11:20:05;;;;;;;0.95;0.82;;;;;;;39.39;30.64;95353.53;5071775;28;20198;-54
2023/09/15 11:22:34;;;;;;;0.43;0.40;;;;;;;39.87;30.21;95347.25;5071489;28;20206;-54
2023/09/15 11:25:02;;;;;;;0.30;0.30;;;;;;;40.06;30.23;95355.66;5071086;28;20251;-53
2023/09/15 11:27:49;;;;;;;0.30;0.30;;;;;;;40.73;29.68;95345.25;5071006;28;20248;-53
2023/09/15 11:30:17;;;;;;;0.50;0.50;;;;;;;40.20;29.96;95332.84;5070670;28;20235;-53
2023/09/15 11:32:46;;;;;;;0.68;0.68;;;;;;;40.05;29.58;95343.00;5071205;28;20210;-53
2023/09/15 11:35:15;;;;;;;0.40;0.40;;;;;;;40.11;30.50;95336.38;5071011;28;20214;-53
2023/09/15 11:37:44;;;;;;;1.33;1.17;;;;;;;38.39;30.99;95338.94;5071499;28;20285;-54
2023/09/15 11:40:20;;;;;;;0.38;0.35;;;;;;;37.91;31.13;95333.84;5070515;28;20195;-53
2023/09/15 11:43:00;;;;;;;0.63;0.63;;;;;;;37.44;30.91;95326.25;5071337;28;20197;-53